Time;durP1;ratioP1;P1;durP2;ratioP2;P2;SDS_P1;SDS_P2;PMS_P1;PMS_P2;Temp;Humidity;BMP_temperature;BMP_pressure;BME280_temperature;BME280_humidity;BME280_pressure;Samples;Min_cycle;Max_cycle;Signal;HPM_P1;HPM_P2
2023/07/06 00:00:05;;;;;;;10.40;4.20;;;;;;;28.87;47.04;101121.33;107135;1264;25335;-50
2023/07/06 00:02:38;;;;;;;7.60;4.60;;;;;;;28.85;46.67;101121.96;107029;1266;24215;-51
2023/07/06 00:05:06;;;;;;;8.00;4.70;;;;;;;28.84;46.49;101119.77;107145;1263;25332;-50
2023/07/06 00:07:34;;;;;;;5.00;4.50;;;;;;;28.82;46.38;101119.95;107143;1257;23857;-51
2023/07/06 00:10:06;;;;;;;5.90;4.50;;;;;;;28.79;46.76;101121.83;106916;1254;25331;-50
2023/07/06 00:12:34;;;;;;;8.00;4.40;;;;;;;28.77;47.19;101116.36;107244;1251;22508;-51
2023/07/06 00:15:01;;;;;;;5.90;4.40;;;;;;;28.75;47.42;101121.92;107126;1253;24235;-51
2023/07/06 00:17:28;;;;;;;5.50;5.00;;;;;;;28.72;47.59;101120.77;107233;1261;25353;-51
2023/07/06 00:19:55;;;;;;;5.10;4.70;;;;;;;28.69;47.86;101116.88;107188;1257;25337;-50
2023/07/06 00:22:23;;;;;;;5.80;5.20;;;;;;;28.67;47.66;101122.34;107105;1257;25368;-51
2023/07/06 00:24:50;;;;;;;7.70;4.50;;;;;;;28.64;47.51;101117.38;107244;1251;25406;-50
2023/07/06 00:27:17;;;;;;;4.70;4.20;;;;;;;28.62;47.28;101117.74;107245;1264;25485;-51
2023/07/06 00:29:56;;;;;;;8.80;5.00;;;;;;;28.60;47.32;101113.98;107188;1266;25379;-51
2023/07/06 00:32:27;;;;;;;5.50;5.00;;;;;;;28.57;47.43;101109.80;107071;1267;25328;-51
2023/07/06 00:34:55;;;;;;;6.30;4.70;;;;;;;28.55;47.42;101110.53;107203;1260;25332;-51
2023/07/06 00:37:22;;;;;;;5.60;5.00;;;;;;;28.52;47.60;101110.42;107209;1265;25331;-51
2023/07/06 00:39:50;;;;;;;4.70;4.00;;;;;;;28.49;47.88;101113.18;107236;1254;25391;-50
2023/07/06 00:42:19;;;;;;;6.30;4.10;;;;;;;28.48;48.27;101110.48;107108;1260;22528;-51
2023/07/06 00:44:48;;;;;;;6.00;4.70;;;;;;;28.45;48.41;101110.16;106827;1270;25801;-51
2023/07/06 00:47:17;;;;;;;5.20;4.50;;;;;;;28.43;48.62;101106.05;107218;1251;22625;-50
2023/07/06 00:49:45;;;;;;;5.60;4.40;;;;;;;28.42;48.42;101107.48;106810;1261;22781;-50
2023/07/06 00:52:13;;;;;;;7.20;5.00;;;;;;;28.40;48.61;101107.61;107129;1266;25408;-51
2023/07/06 00:54:42;;;;;;;7.70;4.70;;;;;;;28.39;48.67;101103.27;107192;1254;22560;-50
2023/07/06 00:57:11;;;;;;;5.70;4.90;;;;;;;28.38;48.42;101103.33;107191;1263;25324;-51
2023/07/06 00:59:40;;;;;;;7.00;4.80;;;;;;;28.36;48.47;101102.12;107131;1262;22534;-50
2023/07/06 01:02:09;;;;;;;6.20;5.00;;;;;;;28.35;48.39;101102.41;107036;1264;25490;-51
2023/07/06 01:04:37;;;;;;;5.50;5.00;;;;;;;28.34;48.69;101109.62;106900;1267;25333;-51
2023/07/06 01:07:04;;;;;;;7.10;5.00;;;;;;;28.32;48.63;101115.13;107080;1257;25369;-50
2023/07/06 01:09:32;;;;;;;9.60;4.70;;;;;;;28.30;48.87;101119.23;106907;1265;25491;-50
2023/07/06 01:12:02;;;;;;;8.60;5.40;;;;;;;28.29;48.95;101121.64;106855;1267;22527;-50
2023/07/06 01:14:31;;;;;;;9.70;5.30;;;;;;;28.27;49.23;101123.77;107116;1254;25356;-50
2023/07/06 01:17:05;;;;;;;6.20;5.50;;;;;;;28.26;49.54;101119.99;107144;1255;25331;-51
2023/07/06 01:19:35;;;;;;;7.40;5.10;;;;;;;28.24;49.77;101118.73;107331;1257;25362;-51
2023/07/06 01:22:29;;;;;;;5.10;4.60;;;;;;;28.22;50.07;101118.16;107220;1264;25448;-51
2023/07/06 01:25:21;;;;;;;10.40;5.90;;;;;;;28.21;50.36;101118.50;106799;1264;25813;-50
2023/07/06 01:28:06;;;;;;;7.00;5.20;;;;;;;28.20;50.28;101116.40;106830;1270;25404;-50
2023/07/06 01:30:52;;;;;;;7.20;5.40;;;;;;;28.19;50.27;101118.27;106600;1263;25366;-52
2023/07/06 01:33:32;;;;;;;5.50;5.10;;;;;;;28.18;50.49;101122.98;106710;1270;25405;-49
2023/07/06 01:36:34;;;;;;;7.00;5.70;;;;;;;28.17;50.66;101123.98;106750;1260;25399;-50
2023/07/06 01:39:15;;;;;;;10.70;5.50;;;;;;;28.16;50.63;101127.30;106738;1258;25331;-49
2023/07/06 01:41:42;;;;;;;;;;;;;;;28.15;50.94;101125.24;106748;1266;25340;-50
2023/07/06 01:44:12;;;;;;;9.60;5.90;;;;;;;28.14;50.80;101123.70;106784;1256;22541;-50
2023/07/06 01:46:45;;;;;;;9.40;5.40;;;;;;;28.12;51.04;101115.73;106724;1266;25345;-50
2023/07/06 01:49:12;;;;;;;6.80;5.10;;;;;;;28.10;51.41;101118.54;106423;1271;24411;-51
2023/07/06 01:52:03;;;;;;;7.10;5.60;;;;;;;28.10;51.36;101121.08;106555;1267;25472;-50
2023/07/06 01:54:44;;;;;;;6.50;5.80;;;;;;;28.09;51.33;101124.20;106795;1257;22537;-50
2023/07/06 01:57:17;;;;;;;10.90;5.80;;;;;;;28.08;51.58;101120.90;106565;1263;22747;-50
2023/07/06 01:59:46;;;;;;;8.20;5.80;;;;;;;28.07;51.85;101119.71;106436;1272;25388;-50
2023/07/06 02:02:13;;;;;;;6.50;5.90;;;;;;;28.06;52.11;101118.73;107014;1264;25350;-51
2023/07/06 02:04:43;;;;;;;8.70;6.10;;;;;;;28.06;52.45;101120.54;107132;1265;25345;-50
2023/07/06 02:07:11;;;;;;;7.40;5.60;;;;;;;28.05;52.66;101121.83;107235;1251;25392;-50
2023/07/06 02:09:46;;;;;;;8.70;6.50;;;;;;;28.05;52.75;101117.63;106921;1266;23351;-50
2023/07/06 02:12:13;;;;;;;6.60;5.80;;;;;;;28.03;52.90;101117.56;107179;1261;25446;-51
2023/07/06 02:14:42;;;;;;;7.00;5.90;;;;;;;28.02;52.82;101117.11;106987;1266;25338;-50
2023/07/06 02:17:09;;;;;;;8.00;6.20;;;;;;;28.02;52.85;101113.40;107186;1263;25334;-50
2023/07/06 02:19:38;;;;;;;6.50;5.80;;;;;;;28.02;52.83;101109.88;106960;1263;22528;-51
2023/07/06 02:22:05;;;;;;;8.50;5.60;;;;;;;28.00;52.55;101105.20;107109;1266;25372;-50
2023/07/06 02:24:32;;;;;;;6.80;5.80;;;;;;;27.99;52.73;101103.35;107230;1262;25447;-51
2023/07/06 02:27:00;;;;;;;8.40;6.20;;;;;;;27.97;52.59;101101.89;107097;1256;25347;-50
2023/07/06 02:29:27;;;;;;;8.70;6.20;;;;;;;27.96;52.36;101106.44;107186;1253;25344;-51
2023/07/06 02:31:54;;;;;;;6.10;5.50;;;;;;;27.94;52.30;101107.82;107265;1250;23273;-51
2023/07/06 02:34:28;;;;;;;6.40;5.80;;;;;;;27.92;52.55;101113.75;107233;1261;23296;-50
2023/07/06 02:36:55;;;;;;;11.30;6.20;;;;;;;27.89;52.58;101114.87;107073;1250;22559;-51
2023/07/06 02:39:24;;;;;;;8.20;5.60;;;;;;;27.87;52.59;101112.39;107188;1250;22540;-51
2023/07/06 02:41:56;;;;;;;7.10;5.30;;;;;;;27.85;52.57;101110.45;107195;1263;25368;-50
2023/07/06 02:44:23;;;;;;;6.30;5.60;;;;;;;27.84;52.91;101113.98;106967;1266;24176;-50
2023/07/06 02:46:50;;;;;;;6.50;5.80;;;;;;;27.83;53.08;101111.33;107198;1250;22635;-50
2023/07/06 02:49:18;;;;;;;7.50;6.40;;;;;;;27.83;53.39;101108.63;106982;1266;25372;-51
2023/07/06 02:51:46;;;;;;;6.50;5.50;;;;;;;27.83;53.72;101112.42;107042;1269;25502;-51
2023/07/06 02:54:15;;;;;;;9.30;6.80;;;;;;;27.83;53.85;101104.80;107184;1261;25375;-51
2023/07/06 02:56:42;;;;;;;6.70;5.50;;;;;;;27.83;53.52;101108.17;107182;1259;25341;-51
2023/07/06 02:59:10;;;;;;;6.90;5.50;;;;;;;27.83;53.35;101112.09;107163;1259;25340;-51
2023/07/06 03:01:37;;;;;;;7.60;5.60;;;;;;;27.83;53.40;101111.34;106810;1267;23176;-51
2023/07/06 03:04:10;;;;;;;7.90;5.90;;;;;;;27.85;53.33;101111.00;107129;1257;25490;-51
2023/07/06 03:06:37;;;;;;;9.10;5.60;;;;;;;27.87;53.54;101114.58;107224;1260;24365;-49
2023/07/06 03:09:05;;;;;;;9.30;5.60;;;;;;;27.88;53.59;101112.73;107273;1258;25362;-50
2023/07/06 03:11:34;;;;;;;7.70;5.70;;;;;;;27.90;54.11;101117.52;107186;1260;26577;-50
2023/07/06 03:14:02;;;;;;;8.70;6.00;;;;;;;27.91;54.27;101119.15;107260;1251;25468;-50
2023/07/06 03:16:39;;;;;;;7.70;6.10;;;;;;;27.94;54.16;101118.05;106910;1266;25331;-50
2023/07/06 03:19:08;;;;;;;7.00;6.30;;;;;;;27.95;54.10;101121.67;106848;1267;22530;-50
2023/07/06 03:21:35;;;;;;;6.50;5.90;;;;;;;27.96;54.04;101122.98;106998;1266;22653;-49
2023/07/06 03:24:02;;;;;;;8.00;6.50;;;;;;;27.98;54.04;101123.19;107024;1267;23211;-52
2023/07/06 03:26:31;;;;;;;7.00;6.30;;;;;;;28.01;53.89;101127.58;106778;1267;25497;-49
2023/07/06 03:28:58;;;;;;;7.70;6.60;;;;;;;28.04;53.87;101128.94;106825;1263;24366;-50
2023/07/06 03:31:25;;;;;;;9.10;7.30;;;;;;;28.06;53.76;101128.73;106786;1272;25421;-50
2023/07/06 03:33:55;;;;;;;7.40;6.60;;;;;;;28.08;53.45;101129.83;106934;1254;25395;-50
2023/07/06 03:36:22;;;;;;;10.60;6.60;;;;;;;28.08;53.45;101130.48;107064;1262;25349;-50
2023/07/06 03:38:50;;;;;;;8.40;6.80;;;;;;;28.10;53.28;101127.33;106883;1269;25359;-49
2023/07/06 03:41:17;;;;;;;7.30;6.50;;;;;;;28.11;53.29;101121.14;106870;1253;22566;-49
2023/07/06 03:43:45;;;;;;;11.80;7.00;;;;;;;28.17;53.37;101119.92;106944;1253;22526;-50
2023/07/06 03:46:15;;;;;;;9.80;6.50;;;;;;;28.31;53.35;101117.18;106988;1254;25290;-51
2023/07/06 03:48:43;;;;;;;10.20;7.30;;;;;;;28.55;53.36;101113.73;107150;1263;25353;-51
2023/07/06 03:51:10;;;;;;;7.40;6.70;;;;;;;28.84;52.71;101109.05;107165;1253;25379;-49
2023/07/06 03:53:38;;;;;;;8.20;7.30;;;;;;;29.11;51.98;101111.55;106910;1265;25353;-51
2023/07/06 03:56:06;;;;;;;8.60;7.50;;;;;;;29.39;51.51;101104.67;107162;1255;24214;-50
2023/07/06 03:58:34;;;;;;;10.60;7.60;;;;;;;29.67;51.07;101103.52;106958;1257;25480;-50
2023/07/06 04:01:01;;;;;;;9.00;7.60;;;;;;;29.91;50.38;101100.14;107149;1259;22643;-50
2023/07/06 04:03:33;;;;;;;9.50;7.80;;;;;;;30.07;50.12;101095.85;107135;1254;25815;-52
2023/07/06 04:06:03;;;;;;;10.50;7.80;;;;;;;30.18;50.09;101092.05;107172;1254;25350;-50
2023/07/06 04:08:30;;;;;;;10.70;8.00;;;;;;;30.27;49.83;101085.11;107189;1253;23862;-51
2023/07/06 04:10:57;;;;;;;9.10;8.20;;;;;;;30.26;49.77;101081.26;107182;1263;25334;-51
2023/07/06 04:13:24;;;;;;;10.30;8.50;;;;;;;30.17;50.07;101080.35;107260;1261;25335;-51
2023/07/06 04:15:52;;;;;;;11.20;8.30;;;;;;;30.03;50.58;101074.29;107134;1253;25424;-49
2023/07/06 04:18:19;;;;;;;10.60;7.80;;;;;;;29.87;50.92;101067.96;107106;1261;25344;-50
2023/07/06 04:20:48;;;;;;;10.70;7.90;;;;;;;29.72;51.50;101069.41;107217;1250;25514;-50
2023/07/06 04:23:15;;;;;;;9.80;7.50;;;;;;;29.59;51.61;101073.02;107240;1254;25353;-51
2023/07/06 04:25:42;;;;;;;10.60;7.90;;;;;;;29.47;52.00;101072.08;107214;1251;23172;-51
2023/07/06 04:28:14;;;;;;;8.90;6.90;;;;;;;29.36;52.38;101074.86;106966;1266;25596;-51
2023/07/06 04:30:43;;;;;;;9.80;7.70;;;;;;;29.26;52.60;101074.78;107127;1251;25334;-50
2023/07/06 04:33:14;;;;;;;9.90;7.60;;;;;;;29.22;52.42;101075.91;107009;1256;24485;-50
2023/07/06 04:35:41;;;;;;;9.00;8.10;;;;;;;29.17;52.63;101079.64;107175;1249;22520;-51
2023/07/06 04:38:10;;;;;;;8.40;7.00;;;;;;;29.13;52.80;101079.11;107067;1266;25344;-51
2023/07/06 04:40:38;;;;;;;8.80;7.60;;;;;;;29.09;53.08;101076.55;107162;1259;22543;-51
2023/07/06 04:43:05;;;;;;;8.70;7.90;;;;;;;29.07;53.07;101076.74;107120;1266;22788;-50
2023/07/06 04:45:33;;;;;;;7.70;7.00;;;;;;;29.07;53.46;101074.14;107088;1263;25382;-51
2023/07/06 04:48:00;;;;;;;8.80;7.10;;;;;;;29.06;53.53;101076.71;107106;1263;25490;-50
2023/07/06 04:50:31;;;;;;;8.10;7.20;;;;;;;29.06;53.87;101078.10;107253;1260;25362;-50
2023/07/06 04:53:00;;;;;;;7.70;6.80;;;;;;;29.07;53.79;101079.25;107240;1266;25466;-51
2023/07/06 04:55:29;;;;;;;10.90;6.90;;;;;;;29.09;54.12;101078.21;107236;1263;25344;-50
2023/07/06 04:57:58;;;;;;;8.20;6.90;;;;;;;29.11;53.87;101077.10;107185;1251;25372;-50
2023/07/06 05:00:28;;;;;;;7.70;6.90;;;;;;;29.16;53.68;101076.86;107274;1263;25334;-50
2023/07/06 05:02:58;;;;;;;8.10;6.90;;;;;;;29.22;53.27;101079.52;107280;1257;22523;-50
2023/07/06 05:05:28;;;;;;;9.80;7.40;;;;;;;29.29;52.58;101080.95;107100;1256;25910;-50
2023/07/06 05:07:55;;;;;;;7.80;6.90;;;;;;;29.38;52.07;101085.30;107238;1251;25362;-49
2023/07/06 05:10:25;;;;;;;10.10;6.80;;;;;;;29.50;51.48;101091.42;106930;1267;25378;-50
2023/07/06 05:12:53;;;;;;;8.20;7.30;;;;;;;29.67;51.27;101095.71;106989;1263;22599;-51
2023/07/06 05:15:20;;;;;;;12.50;7.30;;;;;;;29.90;50.81;101098.41;107279;1260;25378;-50
2023/07/06 05:17:48;;;;;;;8.30;7.30;;;;;;;30.19;50.44;101097.40;107168;1260;25344;-51
2023/07/06 05:20:15;;;;;;;9.00;6.90;;;;;;;30.53;49.62;101095.80;107165;1261;25369;-50
2023/07/06 05:22:48;;;;;;;9.70;7.20;;;;;;;30.92;48.50;101091.08;107237;1263;22559;-52
2023/07/06 05:25:17;;;;;;;10.20;7.90;;;;;;;31.35;47.35;101090.95;106830;1267;25368;-50
2023/07/06 05:27:45;;;;;;;9.70;8.70;;;;;;;31.73;45.56;101086.04;107216;1257;24382;-50
2023/07/06 05:30:14;;;;;;;9.40;8.30;;;;;;;31.98;44.78;101085.83;106938;1263;24191;-50
2023/07/06 05:32:41;;;;;;;11.30;9.00;;;;;;;32.20;44.29;101090.75;107198;1263;25331;-50
2023/07/06 05:35:09;;;;;;;9.70;8.10;;;;;;;32.38;43.88;101084.42;107072;1263;25359;-51
2023/07/06 05:37:36;;;;;;;9.70;8.60;;;;;;;32.51;43.49;101090.75;107197;1253;22949;-51
2023/07/06 05:40:06;;;;;;;11.10;8.30;;;;;;;32.56;43.18;101089.67;107033;1266;23378;-52
2023/07/06 05:42:33;;;;;;;10.00;8.00;;;;;;;32.58;43.05;101088.41;107008;1263;22530;-51
2023/07/06 05:45:00;;;;;;;13.40;9.40;;;;;;;32.63;43.02;101087.29;107172;1266;25567;-49
2023/07/06 05:47:27;;;;;;;8.90;7.90;;;;;;;32.62;42.99;101088.09;107126;1263;25439;-51
2023/07/06 05:49:54;;;;;;;8.80;7.60;;;;;;;32.59;43.02;101086.91;107236;1260;25424;-50
2023/07/06 05:52:22;;;;;;;9.80;7.70;;;;;;;32.61;43.01;101087.33;107137;1261;25369;-50
2023/07/06 05:54:48;;;;;;;8.20;7.10;;;;;;;32.65;42.72;101088.27;107158;1261;25372;-51
2023/07/06 05:57:19;;;;;;;8.10;7.30;;;;;;;32.75;42.53;101091.23;107135;1266;25490;-50
2023/07/06 05:59:48;;;;;;;8.60;7.10;;;;;;;32.91;42.26;101087.20;107226;1263;22528;-51
2023/07/06 06:02:16;;;;;;;12.90;6.80;;;;;;;33.14;41.63;101089.50;107215;1257;22520;-49
2023/07/06 06:04:45;;;;;;;7.00;6.00;;;;;;;33.40;41.23;101087.94;107579;1250;25507;-51
2023/07/06 06:07:12;;;;;;;7.40;6.50;;;;;;;33.64;40.59;101092.45;107706;1251;23387;-51
2023/07/06 06:09:40;;;;;;;7.60;6.50;;;;;;;33.78;40.19;101091.45;107628;1250;25350;-50
2023/07/06 06:12:08;;;;;;;7.10;5.70;;;;;;;33.77;40.07;101094.27;107302;1260;24383;-51
2023/07/06 06:14:35;;;;;;;10.20;6.30;;;;;;;33.65;40.29;101098.01;107373;1254;22552;-50
2023/07/06 06:17:03;;;;;;;8.20;5.90;;;;;;;33.49;40.43;101092.71;107264;1256;25411;-49
2023/07/06 06:19:35;;;;;;;7.30;6.30;;;;;;;33.29;40.73;101091.51;106952;1253;22611;-50
2023/07/06 06:22:04;;;;;;;7.40;6.50;;;;;;;33.09;40.88;101090.61;107398;1259;22407;-51
2023/07/06 06:24:31;;;;;;;9.80;6.60;;;;;;;32.87;41.42;101089.59;107515;1254;25421;-50
2023/07/06 06:27:00;;;;;;;7.90;5.60;;;;;;;32.67;41.99;101086.08;107527;1254;25344;-50
2023/07/06 06:29:32;;;;;;;6.60;6.00;;;;;;;32.50;42.73;101086.54;107541;1251;25531;-50
2023/07/06 06:31:59;;;;;;;6.60;6.00;;;;;;;32.43;43.43;101085.64;107495;1260;24044;-50
2023/07/06 06:34:28;;;;;;;6.70;6.00;;;;;;;32.42;43.49;101085.45;107433;1250;25450;-50
2023/07/06 06:36:55;;;;;;;7.30;6.50;;;;;;;32.38;43.64;101080.69;107135;1260;22532;-50
2023/07/06 06:39:22;;;;;;;10.20;6.70;;;;;;;32.28;43.83;101084.58;107345;1250;25334;-51
2023/07/06 06:41:49;;;;;;;9.30;6.30;;;;;;;32.17;44.16;101087.67;107374;1257;25424;-51
2023/07/06 06:44:17;;;;;;;7.10;6.30;;;;;;;32.09;44.38;101090.45;106967;1269;24017;-51
2023/07/06 06:46:45;;;;;;;6.60;5.90;;;;;;;32.02;44.43;101087.81;107229;1255;25372;-50
2023/07/06 06:49:13;;;;;;;6.90;6.30;;;;;;;31.94;44.32;101088.80;107681;1253;27004;-51
2023/07/06 06:51:40;;;;;;;7.30;5.90;;;;;;;31.82;44.29;101093.64;107523;1254;25497;-50
2023/07/06 06:54:07;;;;;;;9.10;6.60;;;;;;;31.71;44.56;101097.20;107354;1250;25374;-51
2023/07/06 06:56:35;;;;;;;8.60;6.50;;;;;;;31.60;44.95;101098.02;107297;1257;25372;-50
2023/07/06 06:59:02;;;;;;;7.80;7.00;;;;;;;31.52;45.23;101099.52;107310;1263;22523;-51
2023/07/06 07:01:31;;;;;;;7.70;7.00;;;;;;;31.50;45.28;101098.73;107343;1254;25372;-50
2023/07/06 07:04:00;;;;;;;11.00;7.40;;;;;;;31.49;45.53;101097.58;107473;1260;22519;-51
2023/07/06 07:06:29;;;;;;;8.20;7.00;;;;;;;31.47;45.54;101100.67;107431;1256;22520;-52
2023/07/06 07:08:57;;;;;;;8.60;7.50;;;;;;;31.38;45.83;101097.29;107356;1251;25334;-49
2023/07/06 07:11:24;;;;;;;8.70;7.70;;;;;;;31.27;46.11;101101.80;107346;1255;22513;-50
2023/07/06 07:13:52;;;;;;;9.10;7.60;;;;;;;31.19;46.45;101104.19;107381;1253;22542;-49
2023/07/06 07:16:20;;;;;;;8.60;7.80;;;;;;;31.18;47.05;101104.66;107549;1253;25344;-49
2023/07/06 07:18:48;;;;;;;9.70;7.40;;;;;;;31.22;47.48;101105.35;107632;1260;22654;-50
2023/07/06 07:21:17;;;;;;;12.30;8.10;;;;;;;31.26;47.48;101104.20;107728;1255;25348;-49
2023/07/06 07:23:46;;;;;;;9.40;8.30;;;;;;;31.28;47.46;101104.35;107625;1251;23174;-49
2023/07/06 07:26:19;;;;;;;9.00;8.10;;;;;;;31.27;47.67;101106.83;107280;1262;22638;-51
2023/07/06 07:28:51;;;;;;;10.00;8.70;;;;;;;31.22;47.64;101110.52;108047;1253;22539;-49
2023/07/06 07:31:18;;;;;;;8.80;7.90;;;;;;;31.15;47.92;101110.91;107555;1263;23285;-50
2023/07/06 07:33:49;;;;;;;8.70;7.40;;;;;;;31.14;48.27;101109.79;107540;1257;25344;-49
2023/07/06 07:36:17;;;;;;;12.10;8.40;;;;;;;31.16;48.30;101108.11;107317;1253;22516;-50
2023/07/06 07:38:46;;;;;;;11.00;8.20;;;;;;;31.18;48.20;101104.80;107437;1259;25465;-50
2023/07/06 07:41:18;;;;;;;9.70;8.70;;;;;;;31.16;48.29;101104.16;107408;1263;25404;-50
2023/07/06 07:43:46;;;;;;;9.30;8.10;;;;;;;31.15;48.77;101101.27;107284;1254;25475;-50
2023/07/06 07:46:14;;;;;;;8.90;7.80;;;;;;;31.20;48.79;101100.05;107277;1257;25738;-50
2023/07/06 07:48:45;;;;;;;12.10;7.90;;;;;;;31.27;48.63;101103.02;107631;1263;25417;-50
2023/07/06 07:51:14;;;;;;;11.00;8.30;;;;;;;31.34;48.58;101099.45;107325;1254;22525;-51
2023/07/06 07:53:44;;;;;;;10.00;7.90;;;;;;;31.39;48.32;101104.44;107200;1254;24199;-51
2023/07/06 07:56:15;;;;;;;9.40;8.00;;;;;;;31.44;48.32;101102.22;107222;1266;25442;-48
2023/07/06 07:58:45;;;;;;;8.70;7.70;;;;;;;31.50;48.10;101103.53;107519;1253;25375;-51
2023/07/06 08:01:13;;;;;;;11.70;8.10;;;;;;;31.52;47.78;101105.61;107426;1251;22507;-50
2023/07/06 08:03:41;;;;;;;9.30;8.40;;;;;;;31.58;47.67;101106.11;107575;1253;25338;-50
2023/07/06 08:06:09;;;;;;;11.20;8.10;;;;;;;31.62;47.56;101103.12;107768;1253;23896;-50
2023/07/06 08:08:37;;;;;;;9.30;8.00;;;;;;;31.68;47.15;101101.05;106979;1263;24365;-49
2023/07/06 08:11:08;;;;;;;8.50;7.40;;;;;;;31.76;47.26;101103.82;107376;1257;25352;-50
2023/07/06 08:13:38;;;;;;;8.70;7.80;;;;;;;31.81;47.01;101101.45;107575;1260;22532;-49
2023/07/06 08:16:05;;;;;;;9.10;7.80;;;;;;;31.84;46.75;101097.77;107319;1251;24658;-49
2023/07/06 08:18:33;;;;;;;8.70;7.90;;;;;;;31.85;46.65;101099.41;107369;1254;25349;-50
2023/07/06 08:21:02;;;;;;;8.30;7.40;;;;;;;31.88;46.22;101098.75;107179;1250;22522;-49
2023/07/06 08:23:49;;;;;;;8.00;7.30;;;;;;;31.93;46.08;101099.27;107410;1251;25338;-50
2023/07/06 08:26:17;;;;;;;9.70;7.60;;;;;;;31.97;45.77;101099.25;107320;1250;25430;-50
2023/07/06 08:28:46;;;;;;;9.00;7.40;;;;;;;32.01;45.69;101100.06;107284;1251;25369;-49
2023/07/06 08:31:14;;;;;;;8.90;7.20;;;;;;;32.05;45.51;101100.67;107187;1257;25354;-50
2023/07/06 08:33:43;;;;;;;10.30;6.90;;;;;;;32.09;45.45;101098.89;107362;1260;22546;-50
2023/07/06 08:36:11;;;;;;;8.30;6.90;;;;;;;32.14;45.53;101096.36;107276;1266;25363;-49
2023/07/06 08:38:38;;;;;;;8.00;7.00;;;;;;;32.20;45.36;101098.61;107379;1251;25359;-50
2023/07/06 08:41:26;;;;;;;7.90;7.20;;;;;;;32.24;45.41;101097.83;107310;1256;25312;-50
2023/07/06 08:43:54;;;;;;;9.90;6.70;;;;;;;32.24;45.35;101093.89;107082;1257;25411;-51
2023/07/06 08:46:22;;;;;;;7.40;6.70;;;;;;;32.28;45.24;101096.29;107227;1257;301632;-50
2023/07/06 08:48:53;;;;;;;9.70;7.00;;;;;;;32.30;45.08;101094.47;106698;1272;25573;-50
2023/07/06 08:51:22;;;;;;;7.60;6.50;;;;;;;32.28;45.09;101093.23;107131;1257;25406;-50
2023/07/06 08:54:00;;;;;;;11.70;7.00;;;;;;;32.28;45.39;101092.12;107043;1261;22530;-50
2023/07/06 08:56:29;;;;;;;7.60;6.20;;;;;;;32.30;44.93;101094.58;107236;1256;24288;-51
2023/07/06 08:58:57;;;;;;;8.60;6.50;;;;;;;32.33;44.33;101088.48;107142;1256;22545;-51
2023/07/06 09:01:25;;;;;;;7.30;6.60;;;;;;;32.37;44.54;101088.97;107033;1262;22539;-51
2023/07/06 09:03:56;;;;;;;7.30;6.50;;;;;;;32.35;44.47;101088.02;107217;1260;23231;-50
2023/07/06 09:06:26;;;;;;;6.60;6.00;;;;;;;32.31;44.75;101092.16;107049;1254;22755;-50
2023/07/06 09:08:55;;;;;;;6.40;5.80;;;;;;;32.30;44.94;101092.65;107369;1256;25430;-51
2023/07/06 09:11:25;;;;;;;9.10;6.20;;;;;;;32.28;44.92;101097.14;107494;1257;22525;-51
2023/07/06 09:13:54;;;;;;;7.20;6.20;;;;;;;32.26;45.08;101097.02;107397;1266;25416;-51
2023/07/06 09:16:22;;;;;;;6.90;6.20;;;;;;;32.25;45.12;101097.91;107117;1256;24218;-51
2023/07/06 09:18:52;;;;;;;8.40;6.40;;;;;;;32.24;45.04;101100.45;107089;1262;25378;-50
2023/07/06 09:21:22;;;;;;;11.10;6.40;;;;;;;32.26;44.85;101098.71;107627;1260;25230;-50
2023/07/06 09:23:48;;;;;;;6.70;6.00;;;;;;;32.29;44.55;101094.05;107433;1253;25284;-50
2023/07/06 09:26:36;;;;;;;8.30;6.20;;;;;;;32.30;44.66;101095.66;107450;1253;25338;-50
2023/07/06 09:29:17;;;;;;;8.70;5.30;;;;;;;32.33;44.37;101095.55;107171;1266;25427;-51
2023/07/06 09:31:45;;;;;;;6.70;5.60;;;;;;;32.38;44.08;101095.14;107200;1254;25343;-50
2023/07/06 09:34:44;;;;;;;6.10;5.50;;;;;;;32.44;43.77;101092.52;107253;1253;23303;-51
2023/07/06 09:37:13;;;;;;;6.40;5.60;;;;;;;32.48;43.16;101095.89;106560;1257;25533;-50
2023/07/06 09:39:55;;;;;;;8.50;5.70;;;;;;;32.51;42.92;101088.90;107182;1266;22673;-50
2023/07/06 09:42:24;;;;;;;9.00;5.50;;;;;;;32.58;42.40;101089.47;106828;1269;25386;-51
2023/07/06 09:44:51;;;;;;;5.80;5.20;;;;;;;32.62;42.32;101088.46;106755;1262;22529;-50
2023/07/06 09:47:18;;;;;;;6.40;5.20;;;;;;;32.64;42.01;101087.53;106761;1266;25348;-50
2023/07/06 09:49:56;;;;;;;5.60;4.90;;;;;;;32.68;41.67;101086.39;106689;1272;25498;-50
2023/07/06 09:52:25;;;;;;;5.50;5.00;;;;;;;32.73;41.70;101085.54;106397;1272;22539;-51
2023/07/06 09:55:09;;;;;;;5.70;4.70;;;;;;;32.72;41.52;101086.42;106761;1262;25331;-50
2023/07/06 09:57:36;;;;;;;4.80;4.40;;;;;;;32.78;41.28;101083.89;106439;1262;25357;-50
2023/07/06 10:00:03;;;;;;;4.70;4.20;;;;;;;32.95;40.19;101081.57;106527;1275;22533;-52
2023/07/06 10:02:43;;;;;;;5.00;4.40;;;;;;;33.05;39.82;101081.69;106922;1268;25249;-50
2023/07/06 10:05:31;;;;;;;5.70;4.50;;;;;;;33.13;39.02;101082.76;106669;1262;24288;-51
2023/07/06 10:08:17;;;;;;;5.60;4.10;;;;;;;33.19;38.64;101076.27;106592;1265;25341;-50
2023/07/06 10:10:49;;;;;;;5.40;4.60;;;;;;;33.24;38.40;101075.42;106328;1262;22537;-50
2023/07/06 10:13:36;;;;;;;5.50;4.40;;;;;;;33.26;38.45;101076.56;106598;1266;25433;-52
2023/07/06 10:16:15;;;;;;;5.00;4.20;;;;;;;33.29;38.65;101074.50;107329;1259;25395;-51
2023/07/06 10:18:52;;;;;;;5.80;4.30;;;;;;;33.31;38.21;101072.73;107452;1250;25346;-51
2023/07/06 10:21:37;;;;;;;4.10;3.70;;;;;;;33.34;38.07;101069.00;107173;1269;25359;-50
2023/07/06 10:24:25;;;;;;;8.20;3.60;;;;;;;33.39;37.48;101069.52;107411;1251;25348;-50
2023/07/06 10:26:54;;;;;;;9.30;4.00;;;;;;;33.45;36.95;101064.20;107550;1256;25561;-51
2023/07/06 10:29:32;;;;;;;4.80;3.60;;;;;;;33.50;36.97;101064.16;107283;1251;22652;-51
2023/07/06 10:32:04;;;;;;;8.80;3.90;;;;;;;33.56;36.36;101061.27;107246;1253;22902;-51
2023/07/06 10:34:44;;;;;;;17.50;10.00;;;;;;;33.61;36.00;101060.14;107106;1257;25372;-51
2023/07/06 10:37:13;;;;;;;6.50;4.30;;;;;;;33.67;35.67;101061.83;107021;1266;25373;-49
2023/07/06 10:39:43;;;;;;;10.90;5.20;;;;;;;33.71;35.33;101058.17;107649;1253;24031;-50
2023/07/06 10:42:24;;;;;;;12.70;7.70;;;;;;;33.73;35.38;101055.24;107210;1254;25388;-50
2023/07/06 10:44:58;;;;;;;4.60;4.10;;;;;;;33.74;35.19;101057.46;107263;1258;25372;-50
2023/07/06 10:47:28;;;;;;;4.10;3.70;;;;;;;33.75;35.31;101055.80;107421;1256;25347;-50
2023/07/06 10:50:23;;;;;;;4.30;3.90;;;;;;;33.74;35.20;101054.05;107156;1257;25335;-48
2023/07/06 10:52:59;;;;;;;5.70;4.10;;;;;;;33.72;35.53;101052.91;107223;1257;25372;-50
2023/07/06 10:55:35;;;;;;;4.20;3.80;;;;;;;33.71;35.31;101050.65;107046;1254;22982;-50
2023/07/06 10:58:16;;;;;;;3.90;3.60;;;;;;;33.70;35.58;101044.64;106545;1256;22519;-51
2023/07/06 11:00:43;;;;;;;5.90;4.00;;;;;;;33.71;35.74;101042.02;107075;1263;25468;-52
2023/07/06 11:03:14;;;;;;;5.50;4.50;;;;;;;33.73;35.40;101042.12;107149;1260;24364;-50
2023/07/06 11:05:55;;;;;;;4.80;3.70;;;;;;;33.75;35.21;101036.20;106807;1272;25343;-51
2023/07/06 11:09:07;;;;;;;6.70;3.80;;;;;;;33.76;35.26;101034.77;107045;1254;23875;-52
2023/07/06 11:11:38;;;;;;;4.50;3.80;;;;;;;33.78;34.54;101030.71;106278;1277;25373;-48
2023/07/06 11:14:39;;;;;;;10.00;4.20;;;;;;;33.80;34.30;101026.59;106087;1273;25435;-48
2023/07/06 11:17:10;;;;;;;7.60;4.10;;;;;;;33.81;33.85;101022.83;106259;1275;25449;-48
2023/07/06 11:19:42;;;;;;;4.60;3.40;;;;;;;33.81;33.59;101017.61;106668;1269;25499;-50
2023/07/06 11:22:14;;;;;;;6.30;3.90;;;;;;;33.81;33.39;101018.71;106631;1272;25420;-50
2023/07/06 11:24:44;;;;;;;5.10;3.90;;;;;;;33.81;33.49;101016.16;106801;1273;22747;-50
2023/07/06 11:27:24;;;;;;;4.30;3.50;;;;;;;33.83;33.47;101009.44;106495;1272;22531;-51
2023/07/06 11:29:59;;;;;;;6.10;3.20;;;;;;;33.85;33.51;101004.33;106404;1263;22537;-49
2023/07/06 11:32:32;;;;;;;3.80;3.20;;;;;;;33.87;33.39;101004.48;106697;1269;25373;-50